createdAt,value
2023-04-09T00:00:46.237Z,1074.00
2023-04-09T00:01:46.264Z,1076.00
2023-04-09T00:02:46.305Z,1066.00
2023-04-09T00:03:46.365Z,1078.00
2023-04-09T00:04:46.341Z,1103.00
2023-04-09T00:05:46.997Z,1103.00
2023-04-09T00:06:46.236Z,1062.00
2023-04-09T00:07:46.253Z,1075.00
2023-04-09T00:08:46.275Z,1071.00
2023-04-09T00:09:46.282Z,1079.00
2023-04-09T00:10:46.273Z,1072.00
2023-04-09T00:11:46.286Z,1081.00
2023-04-09T00:12:46.308Z,1085.00
2023-04-09T00:13:46.321Z,1090.00
2023-04-09T00:14:46.311Z,1070.00
2023-04-09T00:15:46.332Z,1065.00
2023-04-09T00:16:46.431Z,1100.00
2023-04-09T00:17:46.353Z,1095.00
2023-04-09T00:18:46.364Z,1086.00
2023-04-09T00:19:46.351Z,1087.00
2023-04-09T00:20:46.346Z,1063.00
2023-04-09T00:21:46.330Z,1084.00
2023-04-09T00:22:46.350Z,1086.00
2023-04-09T00:23:46.401Z,1091.00
2023-04-09T00:24:46.343Z,1090.00
2023-04-09T00:25:46.352Z,1082.00
2023-04-09T00:26:46.354Z,1095.00
2023-04-09T00:27:46.372Z,1091.00
2023-04-09T00:28:46.352Z,1082.00
2023-04-09T00:29:46.356Z,1062.00
2023-04-09T00:30:46.355Z,1068.00
2023-04-09T00:31:46.410Z,1072.00
2023-04-09T00:32:46.424Z,1074.00
2023-04-09T00:33:46.374Z,1084.00
2023-04-09T00:34:46.376Z,1070.00
2023-04-09T00:35:46.432Z,1068.00
2023-04-09T00:36:46.380Z,1080.00
2023-04-09T00:37:46.413Z,1083.00
2023-04-09T00:38:46.392Z,1089.00
2023-04-09T00:39:46.396Z,1091.00
2023-04-09T00:40:46.472Z,1063.00
2023-04-09T00:41:46.418Z,1088.00
2023-04-09T00:42:46.647Z,1082.00
2023-04-09T00:43:46.438Z,1104.00
2023-04-09T00:44:46.505Z,1087.00
2023-04-09T00:45:46.529Z,1097.00
2023-04-09T00:46:46.521Z,1093.00
2023-04-09T00:47:46.646Z,1081.00
2023-04-09T00:48:46.554Z,1087.00
2023-04-09T00:49:46.572Z,1086.00
2023-04-09T00:50:46.574Z,1089.00
2023-04-09T00:51:46.584Z,1087.00
2023-04-09T00:52:46.618Z,1100.00
2023-04-09T00:53:46.640Z,1098.00
2023-04-09T00:54:46.643Z,1093.00
2023-04-09T00:55:46.658Z,1092.00
2023-04-09T00:56:46.674Z,1106.00
2023-04-09T00:57:46.684Z,1077.00
2023-04-09T00:58:46.688Z,1076.00
2023-04-09T00:59:46.692Z,1073.00
2023-04-09T01:00:46.702Z,1074.00
2023-04-09T01:01:46.753Z,1076.00
2023-04-09T01:02:47.100Z,1068.00
2023-04-09T01:03:46.953Z,1069.00
2023-04-09T01:04:46.739Z,1072.00
2023-04-09T01:05:46.776Z,1071.00
2023-04-09T01:06:46.780Z,1074.00
2023-04-09T01:07:46.792Z,1080.00
2023-04-09T01:08:46.907Z,1075.00
2023-04-09T01:09:46.831Z,1063.00
2023-04-09T01:10:47.515Z,1038.00
2023-04-09T01:11:46.988Z,1055.00
2023-04-09T01:12:46.915Z,1061.00
2023-04-09T01:13:46.945Z,1046.00
2023-04-09T01:14:46.948Z,1069.00
2023-04-09T01:15:46.981Z,1066.00
2023-04-09T01:16:47.108Z,1078.00
2023-04-09T01:17:47.028Z,1084.00
2023-04-09T01:18:47.042Z,1073.00
2023-04-09T01:19:47.045Z,1072.00
2023-04-09T01:20:47.085Z,1064.00
2023-04-09T01:21:47.099Z,1068.00
2023-04-09T01:22:47.121Z,1068.00
2023-04-09T01:23:47.180Z,1047.00
2023-04-09T01:24:47.162Z,1048.00
2023-04-09T01:25:47.195Z,1066.00
2023-04-09T01:26:47.204Z,1069.00
2023-04-09T01:27:47.225Z,1059.00
2023-04-09T01:28:47.245Z,1061.00
2023-04-09T01:29:47.348Z,1050.00
2023-04-09T01:30:47.382Z,1057.00
2023-04-09T01:31:47.292Z,1061.00
2023-04-09T01:32:47.344Z,1066.00
2023-04-09T01:33:47.344Z,1046.00
2023-04-09T01:34:47.532Z,1065.00
2023-04-09T01:35:47.394Z,1067.00
2023-04-09T01:36:47.397Z,1059.00
2023-04-09T01:37:47.425Z,1064.00
2023-04-09T01:38:47.454Z,1058.00
2023-04-09T01:39:47.477Z,1071.00
2023-04-09T01:40:48.031Z,1034.00
2023-04-09T01:41:47.480Z,1065.00
2023-04-09T01:42:47.501Z,1058.00
2023-04-09T01:43:47.521Z,1046.00
2023-04-09T01:44:47.527Z,1055.00
2023-04-09T01:45:47.635Z,1050.00
2023-04-09T01:46:47.582Z,1052.00
2023-04-09T01:47:47.606Z,1062.00
2023-04-09T01:48:47.595Z,1065.00
2023-04-09T01:49:47.615Z,1050.00
2023-04-09T01:50:47.630Z,1055.00
2023-04-09T01:51:47.654Z,1060.00
2023-04-09T01:52:47.662Z,1059.00
2023-04-09T01:53:47.684Z,1063.00
2023-04-09T01:54:47.673Z,1053.00
2023-04-09T01:55:48.037Z,1062.00
2023-04-09T01:56:47.734Z,1073.00
2023-04-09T01:57:47.765Z,1068.00
2023-04-09T01:58:47.752Z,1071.00
2023-04-09T01:59:47.760Z,1071.00
2023-04-09T02:00:47.792Z,1065.00
2023-04-09T02:01:47.905Z,1072.00
2023-04-09T02:02:47.937Z,1067.00
2023-04-09T02:03:47.919Z,1063.00
2023-04-09T02:04:47.916Z,1072.00
2023-04-09T02:05:47.916Z,1062.00
2023-04-09T02:06:47.919Z,1059.00
2023-04-09T02:07:47.928Z,1058.00
2023-04-09T02:08:47.999Z,1090.00
2023-04-09T02:09:48.015Z,1079.00
2023-04-09T02:10:48.004Z,1079.00
2023-04-09T02:11:48.009Z,1066.00
2023-04-09T02:12:48.549Z,1072.00
2023-04-09T02:13:48.036Z,1052.00
2023-04-09T02:14:48.055Z,1055.00
2023-04-09T02:15:48.090Z,1050.00
2023-04-09T02:16:48.077Z,1044.00
2023-04-09T02:17:48.130Z,1052.00
2023-04-09T02:18:48.101Z,1054.00
2023-04-09T02:19:48.113Z,1053.00
2023-04-09T02:20:48.183Z,1046.00
2023-04-09T02:21:48.140Z,1059.00
2023-04-09T02:22:48.182Z,1058.00
2023-04-09T02:23:48.173Z,1040.00
2023-04-09T02:24:48.192Z,1052.00
2023-04-09T02:25:48.197Z,1050.00
2023-04-09T02:26:48.201Z,1050.00
2023-04-09T02:27:48.214Z,1055.00
2023-04-09T02:28:48.279Z,1045.00
2023-04-09T02:29:48.290Z,1057.00
2023-04-09T02:30:48.304Z,1050.00
2023-04-09T02:31:48.365Z,1041.00
2023-04-09T02:32:48.335Z,1033.00
2023-04-09T02:33:48.353Z,1048.00
2023-04-09T02:34:48.377Z,1042.00
2023-04-09T02:35:48.400Z,1052.00
2023-04-09T02:36:48.393Z,1034.00
2023-04-09T02:37:48.413Z,1047.00
2023-04-09T02:38:49.071Z,1044.00
2023-04-09T02:39:49.059Z,1050.00
2023-04-09T02:40:48.505Z,1053.00
2023-04-09T02:41:48.522Z,1049.00
2023-04-09T02:42:48.539Z,1051.00
2023-04-09T02:43:48.550Z,1029.00
2023-04-09T02:44:48.552Z,1044.00
2023-04-09T02:45:48.595Z,1040.00
2023-04-09T02:46:48.634Z,1044.00
2023-04-09T02:47:48.631Z,1061.00
2023-04-09T02:48:48.624Z,1044.00
2023-04-09T02:49:48.647Z,1025.00
2023-04-09T02:50:48.658Z,1046.00
2023-04-09T02:51:48.666Z,1026.00
2023-04-09T02:52:48.688Z,1029.00
2023-04-09T02:53:49.541Z,1043.00
2023-04-09T02:54:48.716Z,1015.00
2023-04-09T02:55:48.719Z,1030.00
2023-04-09T02:56:48.741Z,1026.00
2023-04-09T02:57:48.744Z,1032.00
2023-04-09T02:58:48.774Z,1042.00
2023-04-09T02:59:48.811Z,1024.00
2023-04-09T03:00:48.833Z,1045.00
2023-04-09T03:01:48.908Z,1039.00
2023-04-09T03:02:48.967Z,1033.00
2023-04-09T03:03:48.958Z,1040.00
2023-04-09T03:04:48.957Z,1029.00
2023-04-09T03:05:48.956Z,1046.00
2023-04-09T03:06:48.983Z,1043.00
2023-04-09T03:07:48.987Z,1046.00
2023-04-09T03:08:49.202Z,1030.00
2023-04-09T03:09:49.084Z,1035.00
2023-04-09T03:10:49.025Z,1042.00
2023-04-09T03:11:49.023Z,1037.00
2023-04-09T03:12:49.053Z,1031.00
2023-04-09T03:13:49.132Z,1039.00
2023-04-09T03:14:49.143Z,1032.00
2023-04-09T03:15:49.170Z,1045.00
2023-04-09T03:16:49.153Z,1050.00
2023-04-09T03:17:49.264Z,1043.00
2023-04-09T03:18:49.326Z,1041.00
2023-04-09T03:19:49.257Z,1032.00
2023-04-09T03:20:49.271Z,1045.00
2023-04-09T03:21:49.290Z,1051.00
2023-04-09T03:22:49.290Z,1033.00
2023-04-09T03:23:50.069Z,1029.00
2023-04-09T03:24:49.317Z,1042.00
2023-04-09T03:25:49.327Z,1034.00
2023-04-09T03:26:49.396Z,1021.00
2023-04-09T03:27:49.356Z,1047.00
2023-04-09T03:28:49.386Z,1049.00
2023-04-09T03:29:49.390Z,1036.00
2023-04-09T03:30:49.425Z,1036.00
2023-04-09T03:31:49.432Z,1054.00
2023-04-09T03:32:50.108Z,1039.00
2023-04-09T03:33:49.468Z,1042.00
2023-04-09T03:34:49.475Z,1042.00
2023-04-09T03:35:49.491Z,1038.00
2023-04-09T03:36:50.076Z,1051.00
2023-04-09T03:37:49.514Z,1059.00
2023-04-09T03:38:49.719Z,1054.00
2023-04-09T03:39:49.555Z,1040.00
2023-04-09T03:40:49.551Z,1048.00
2023-04-09T03:41:49.559Z,1056.00
2023-04-09T03:42:49.575Z,1032.00
2023-04-09T03:43:49.587Z,1044.00
2023-04-09T03:44:49.590Z,1048.00
2023-04-09T03:45:49.718Z,1049.00
2023-04-09T03:46:49.830Z,1044.00
2023-04-09T03:47:50.666Z,1048.00
2023-04-09T03:48:50.032Z,1033.00
2023-04-09T03:49:49.912Z,1045.00
2023-04-09T03:50:49.969Z,1057.00
2023-04-09T03:51:49.979Z,1056.00
2023-04-09T03:52:49.978Z,1039.00
2023-04-09T03:53:49.995Z,1061.00
2023-04-09T03:54:50.007Z,1056.00
2023-04-09T03:55:50.020Z,1029.00
2023-04-09T03:56:50.044Z,1051.00
2023-04-09T03:57:50.148Z,1062.00
2023-04-09T03:58:50.212Z,1052.00
2023-04-09T03:59:50.089Z,1036.00
2023-04-09T04:00:50.129Z,1047.00
2023-04-09T04:01:50.220Z,1066.00
2023-04-09T04:02:50.530Z,1050.00
2023-04-09T04:03:50.226Z,1051.00
2023-04-09T04:04:50.253Z,1056.00
2023-04-09T04:05:50.195Z,1044.00
2023-04-09T04:06:50.228Z,1049.00
2023-04-09T04:07:50.234Z,1075.00
2023-04-09T04:08:50.309Z,1042.00
2023-04-09T04:09:50.254Z,1051.00
2023-04-09T04:10:50.303Z,1051.00
2023-04-09T04:11:50.293Z,1038.00
2023-04-09T04:12:50.344Z,1051.00
2023-04-09T04:13:50.325Z,1060.00
2023-04-09T04:14:50.325Z,1056.00
2023-04-09T04:15:50.344Z,1058.00
2023-04-09T04:16:50.346Z,1068.00
2023-04-09T04:17:50.383Z,1059.00
2023-04-09T04:18:50.828Z,1059.00
2023-04-09T04:19:50.427Z,1058.00
2023-04-09T04:20:50.446Z,1050.00
2023-04-09T04:21:50.460Z,1058.00
2023-04-09T04:22:50.484Z,1058.00
2023-04-09T04:23:50.489Z,1067.00
2023-04-09T04:24:50.512Z,1062.00
2023-04-09T04:25:50.539Z,1042.00
2023-04-09T04:26:50.568Z,1050.00
2023-04-09T04:27:50.572Z,1061.00
2023-04-09T04:28:50.828Z,1049.00
2023-04-09T04:29:50.607Z,1057.00
2023-04-09T04:30:50.640Z,1023.00
2023-04-09T04:31:50.662Z,1042.00
2023-04-09T04:32:50.707Z,1034.00
2023-04-09T04:33:50.695Z,1051.00
2023-04-09T04:34:50.737Z,1040.00
2023-04-09T04:35:50.755Z,1052.00
2023-04-09T04:36:50.746Z,1052.00
2023-04-09T04:37:50.780Z,1054.00
2023-04-09T04:38:50.994Z,1054.00
2023-04-09T04:39:50.807Z,1052.00
2023-04-09T04:40:50.820Z,1044.00
2023-04-09T04:41:50.843Z,1049.00
2023-04-09T04:42:50.870Z,1044.00
2023-04-09T04:43:50.888Z,1049.00
2023-04-09T04:44:50.934Z,1041.00
2023-04-09T04:45:53.480Z,1037.00
2023-04-09T04:46:50.927Z,1016.00
2023-04-09T04:47:51.009Z,1039.00
2023-04-09T04:48:51.082Z,1026.00
2023-04-09T04:49:50.905Z,1046.00
2023-04-09T04:50:50.899Z,1037.00
2023-04-09T04:51:50.892Z,1033.00
2023-04-09T04:52:50.882Z,1045.00
2023-04-09T04:53:50.896Z,1001.00
2023-04-09T04:54:50.892Z,1031.00
2023-04-09T04:55:50.877Z,1041.00
2023-04-09T04:56:50.879Z,1034.00
2023-04-09T04:57:50.857Z,1026.00
2023-04-09T04:58:51.087Z,1028.00
2023-04-09T04:59:50.849Z,1036.00
2023-04-09T05:00:51.643Z,1000.00
2023-04-09T05:01:50.862Z,1026.00
2023-04-09T05:02:50.988Z,1012.00
2023-04-09T05:03:50.879Z,1013.00
2023-04-09T05:04:50.806Z,1000.00
2023-04-09T05:05:50.797Z,1024.00
2023-04-09T05:06:50.792Z,1026.00
2023-04-09T05:07:50.787Z,1024.00
2023-04-09T05:08:51.008Z,1018.00
2023-04-09T05:09:50.767Z,1023.00
2023-04-09T05:10:50.765Z,1020.00
2023-04-09T05:11:50.766Z,1024.00
2023-04-09T05:12:51.607Z,1028.00
2023-04-09T05:13:50.733Z,1025.00
2023-04-09T05:14:50.725Z,1032.00
2023-04-09T05:15:51.628Z,1035.00
2023-04-09T05:16:50.763Z,1040.00
2023-04-09T05:17:50.765Z,1038.00
2023-04-09T05:18:51.113Z,1036.00
2023-04-09T05:19:50.695Z,1039.00
2023-04-09T05:20:50.689Z,1040.00
2023-04-09T05:21:50.752Z,1029.00
2023-04-09T05:22:50.670Z,1037.00
2023-04-09T05:23:51.605Z,1028.00
2023-04-09T05:24:50.657Z,1026.00
2023-04-09T05:25:50.736Z,1030.00
2023-04-09T05:26:50.656Z,1050.00
2023-04-09T05:27:50.640Z,1037.00
2023-04-09T05:28:50.857Z,1039.00
2023-04-09T05:29:50.703Z,1046.00
2023-04-09T05:30:50.653Z,1025.00
2023-04-09T05:31:50.621Z,1030.00
2023-04-09T05:32:50.647Z,1025.00
2023-04-09T05:33:50.603Z,1033.00
2023-04-09T05:34:50.604Z,1034.00
2023-04-09T05:35:50.630Z,1045.00
2023-04-09T05:36:50.599Z,1046.00
2023-04-09T05:37:51.158Z,1033.00
2023-04-09T05:38:50.783Z,1048.00
2023-04-09T05:39:50.569Z,1033.00
2023-04-09T05:40:50.573Z,1024.00
2023-04-09T05:41:50.560Z,1034.00
2023-04-09T05:42:50.549Z,1040.00
2023-04-09T05:43:50.829Z,1051.00
2023-04-09T05:44:50.530Z,1047.00
2023-04-09T05:45:51.174Z,1045.00
2023-04-09T05:46:50.527Z,1043.00
2023-04-09T05:47:50.576Z,1037.00
2023-04-09T05:48:50.776Z,1046.00
2023-04-09T05:49:50.510Z,1033.00
2023-04-09T05:50:55.156Z,1050.00
2023-04-09T05:51:51.497Z,1045.00
2023-04-09T05:52:51.123Z,1046.00
2023-04-09T05:53:50.553Z,1031.00
2023-04-09T05:54:50.467Z,1024.00
2023-04-09T05:55:50.457Z,1023.00
2023-04-09T05:56:50.450Z,1031.00
2023-04-09T05:57:50.447Z,1035.00
2023-04-09T05:58:50.486Z,1045.00
2023-04-09T05:59:50.425Z,1044.00
2023-04-09T06:00:50.423Z,1037.00
2023-04-09T06:01:50.436Z,1041.00
2023-04-09T06:02:50.473Z,1039.00
2023-04-09T06:03:50.691Z,1042.00
2023-04-09T06:04:50.514Z,1052.00
2023-04-09T06:05:50.385Z,1029.00
2023-04-09T06:06:50.380Z,1037.00
2023-04-09T06:07:50.379Z,1035.00
2023-04-09T06:08:50.368Z,1029.00
2023-04-09T06:09:50.386Z,1021.00
2023-04-09T06:10:50.353Z,1034.00
2023-04-09T06:11:50.350Z,1045.00
2023-04-09T06:12:50.335Z,1046.00
2023-04-09T06:13:50.475Z,1021.00
2023-04-09T06:14:50.320Z,1044.00
2023-04-09T06:15:50.357Z,1033.00
2023-04-09T06:16:50.310Z,1022.00
2023-04-09T06:17:50.331Z,1047.00
2023-04-09T06:18:50.292Z,1018.00
2023-04-09T06:19:50.288Z,1027.00
2023-04-09T06:20:50.281Z,1014.00
2023-04-09T06:21:50.274Z,1008.00
2023-04-09T06:22:50.291Z,1026.00
2023-04-09T06:23:50.699Z,1010.00
2023-04-09T06:24:50.256Z,1030.00
2023-04-09T06:25:50.259Z,1035.00
2023-04-09T06:26:50.362Z,1021.00
2023-04-09T06:27:50.336Z,1020.00
2023-04-09T06:28:50.422Z,1036.00
2023-04-09T06:29:50.350Z,1011.00
2023-04-09T06:30:50.413Z,1018.00
2023-04-09T06:31:50.421Z,1014.00
2023-04-09T06:32:54.842Z,1014.00
2023-04-09T06:33:51.749Z,1015.00
2023-04-09T06:34:50.387Z,1017.00
2023-04-09T06:35:50.406Z,1023.00
2023-04-09T06:36:50.379Z,1018.00
2023-04-09T06:37:50.399Z,1022.00
2023-04-09T06:38:50.373Z,1030.00
2023-04-09T06:40:00.464Z,1024.00
2023-04-09T06:40:51.351Z,1025.00
2023-04-09T06:41:50.341Z,1027.00
2023-04-09T06:42:50.347Z,1027.00
2023-04-09T06:43:50.453Z,1036.00
2023-04-09T06:44:50.324Z,1042.00
2023-04-09T06:45:50.326Z,1032.00
2023-04-09T06:46:50.380Z,1035.00
2023-04-09T06:47:50.339Z,1036.00
2023-04-09T06:48:50.463Z,1031.00
2023-04-09T06:49:50.276Z,1037.00
2023-04-09T06:50:50.302Z,1036.00
2023-04-09T06:51:50.320Z,1026.00
2023-04-09T06:52:50.342Z,1035.00
2023-04-09T06:53:51.382Z,1025.00
2023-04-09T06:54:50.411Z,1026.00
2023-04-09T06:55:50.485Z,1027.00
2023-04-09T06:56:50.440Z,1018.00
2023-04-09T06:57:50.489Z,1037.00
2023-04-09T06:58:50.518Z,1036.00
2023-04-09T06:59:50.547Z,1029.00
2023-04-09T07:00:50.597Z,1030.00
2023-04-09T07:01:52.051Z,1045.00
2023-04-09T07:02:50.771Z,1030.00
2023-04-09T07:03:50.735Z,1017.00
2023-04-09T07:04:50.677Z,1030.00
2023-04-09T07:05:50.597Z,1032.00
2023-04-09T07:06:50.598Z,1012.00
2023-04-09T07:07:50.591Z,1006.00
2023-04-09T07:08:50.832Z,1012.00
2023-04-09T07:09:50.567Z,1025.00
2023-04-09T07:10:50.561Z,1028.00
2023-04-09T07:11:50.567Z,1021.00
2023-04-09T07:12:50.563Z,1016.00
2023-04-09T07:13:50.584Z,1009.00
2023-04-09T07:14:50.539Z,1016.00
2023-04-09T07:15:50.543Z,1005.00
2023-04-09T07:16:50.523Z,1003.00
2023-04-09T07:17:50.520Z,1024.00
2023-04-09T07:18:50.536Z,1018.00
2023-04-09T07:19:50.505Z,1017.00
2023-04-09T07:20:50.498Z,1031.00
2023-04-09T07:21:50.493Z,1017.00
2023-04-09T07:22:50.487Z,1010.00
2023-04-09T07:23:51.038Z,1014.00
2023-04-09T07:24:50.463Z,1014.00
2023-04-09T07:25:50.463Z,1021.00
2023-04-09T07:26:52.110Z,1002.00
2023-04-09T07:27:51.162Z,1023.00
2023-04-09T07:28:51.155Z,1028.00
2023-04-09T07:29:50.440Z,1020.00
2023-04-09T07:30:51.161Z,1006.00
2023-04-09T07:31:50.638Z,1011.00
2023-04-09T07:32:50.796Z,1009.00
2023-04-09T07:33:51.361Z,1014.00
2023-04-09T07:34:50.719Z,1008.00
2023-04-09T07:35:50.820Z,1008.00
2023-04-09T07:36:50.842Z,1002.00
2023-04-09T07:37:50.998Z,1004.00
2023-04-09T07:38:51.302Z,1026.00
2023-04-09T07:39:51.005Z,1019.00
2023-04-09T07:40:51.038Z,1010.00
2023-04-09T07:41:51.106Z,1000.00
2023-04-09T07:42:51.161Z,1013.00
2023-04-09T07:43:51.239Z,1016.00
2023-04-09T07:44:51.286Z,1015.00
2023-04-09T07:45:51.334Z,1003.00
2023-04-09T07:46:52.216Z,997.00
2023-04-09T07:47:51.501Z,995.00
2023-04-09T07:48:51.972Z,987.00
2023-04-09T07:49:51.567Z,994.00
2023-04-09T07:50:51.652Z,995.00
2023-04-09T07:51:51.686Z,1001.00
2023-04-09T07:52:51.730Z,995.00
2023-04-09T07:53:51.802Z,989.00
2023-04-09T07:54:51.853Z,1001.00
2023-04-09T07:55:51.902Z,1014.00
2023-04-09T07:56:51.964Z,997.00
2023-04-09T07:57:52.034Z,995.00
2023-04-09T07:58:52.217Z,1000.00
2023-04-09T07:59:52.125Z,1000.00
2023-04-09T08:00:52.181Z,1012.00
2023-04-09T08:01:52.278Z,1008.00
2023-04-09T08:02:52.419Z,1010.00
2023-04-09T08:03:52.609Z,1002.00
2023-04-09T08:04:52.481Z,1007.00
2023-04-09T08:05:52.478Z,1022.00
2023-04-09T08:06:52.540Z,1006.00
2023-04-09T08:07:52.582Z,1002.00
2023-04-09T08:08:52.813Z,1004.00
2023-04-09T08:09:52.755Z,1009.00
2023-04-09T08:10:52.740Z,1006.00
2023-04-09T08:11:52.784Z,1011.00
2023-04-09T08:12:52.838Z,1009.00
2023-04-09T08:13:52.896Z,1010.00
2023-04-09T08:14:52.928Z,1009.00
2023-04-09T08:15:52.972Z,1006.00
2023-04-09T08:16:53.183Z,1010.00
2023-04-09T08:17:53.090Z,1012.00
2023-04-09T08:18:53.230Z,1002.00
2023-04-09T08:19:53.131Z,1009.00
2023-04-09T08:20:53.153Z,1011.00
2023-04-09T08:21:53.182Z,998.00
2023-04-09T08:22:53.219Z,997.00
2023-04-09T08:23:53.244Z,1004.00
2023-04-09T08:24:53.322Z,1010.00
2023-04-09T08:25:53.290Z,1007.00
2023-04-09T08:26:53.301Z,1014.00
2023-04-09T08:27:53.321Z,1020.00
2023-04-09T08:28:53.495Z,1038.00
2023-04-09T08:29:53.360Z,1042.00
2023-04-09T08:30:53.701Z,1045.00
2023-04-09T08:31:53.399Z,1074.00
2023-04-09T08:32:53.527Z,1085.00
2023-04-09T08:33:53.536Z,1108.00
2023-04-09T08:34:53.508Z,1115.00
2023-04-09T08:35:53.506Z,1137.00
2023-04-09T08:36:53.525Z,1137.00
2023-04-09T08:37:53.538Z,1144.00
2023-04-09T08:38:53.663Z,1150.00
2023-04-09T08:39:53.615Z,1148.00
2023-04-09T08:40:53.742Z,1154.00
2023-04-09T08:41:53.698Z,1143.00
2023-04-09T08:42:53.728Z,1139.00
2023-04-09T08:44:53.733Z,1138.00
2023-04-09T08:45:53.772Z,1139.00
2023-04-09T08:46:53.713Z,1142.00
2023-04-09T08:47:53.789Z,1145.00
2023-04-09T08:48:54.226Z,1166.00
2023-04-09T08:49:53.701Z,1142.00
2023-04-09T08:50:53.681Z,1143.00
2023-04-09T08:51:53.682Z,1140.00
2023-04-09T08:52:53.679Z,1150.00
2023-04-09T08:53:53.657Z,1149.00
2023-04-09T08:54:53.735Z,1163.00
2023-04-09T08:55:53.645Z,1156.00
2023-04-09T08:56:53.646Z,1142.00
2023-04-09T08:57:53.635Z,1160.00
2023-04-09T08:58:53.727Z,1156.00
2023-04-09T08:59:53.621Z,1140.00
2023-04-09T09:00:53.639Z,1141.00
2023-04-09T09:01:53.670Z,1149.00
2023-04-09T09:02:53.767Z,1151.00
2023-04-09T09:03:53.656Z,1171.00
2023-04-09T09:04:53.593Z,1162.00
2023-04-09T09:05:53.570Z,1160.00
2023-04-09T09:06:55.410Z,1173.00
2023-04-09T09:07:53.552Z,1173.00
2023-04-09T09:08:53.763Z,1171.00
2023-04-09T09:09:53.555Z,1161.00
2023-04-09T09:10:53.540Z,1168.00
2023-04-09T09:11:53.528Z,1165.00
2023-04-09T09:12:53.509Z,1170.00
2023-04-09T09:13:53.500Z,1157.00
2023-04-09T09:14:53.500Z,1164.00
2023-04-09T09:15:53.499Z,1167.00
2023-04-09T09:16:53.508Z,1186.00
2023-04-09T09:17:53.485Z,1187.00
2023-04-09T09:18:54.685Z,1175.00
2023-04-09T09:19:53.467Z,1184.00
2023-04-09T09:20:53.448Z,1165.00
2023-04-09T09:21:53.455Z,1154.00
2023-04-09T09:22:54.917Z,1145.00
2023-04-09T09:23:53.427Z,1150.00
2023-04-09T09:24:53.443Z,1115.00
2023-04-09T09:25:53.419Z,1128.00
2023-04-09T09:26:53.406Z,1135.00
2023-04-09T09:27:53.394Z,1126.00
2023-04-09T09:28:53.591Z,1127.00
2023-04-09T09:29:53.496Z,1107.00
2023-04-09T09:30:53.592Z,1118.00
2023-04-09T09:31:53.605Z,1125.00
2023-04-09T09:32:53.711Z,1142.00
2023-04-09T09:33:53.734Z,1130.00
2023-04-09T09:34:53.781Z,1121.00
2023-04-09T09:35:53.864Z,1102.00
2023-04-09T09:36:53.897Z,1119.00
2023-04-09T09:37:53.952Z,1088.00
2023-04-09T09:38:54.469Z,1085.00
2023-04-09T09:39:54.069Z,1104.00
2023-04-09T09:40:54.132Z,1118.00
2023-04-09T09:41:54.150Z,1104.00
2023-04-09T09:42:54.191Z,1115.00
2023-04-09T09:43:54.232Z,1138.00
2023-04-09T09:44:54.271Z,1132.00
2023-04-09T09:45:54.332Z,1132.00
2023-04-09T09:46:54.723Z,1140.00
2023-04-09T09:47:54.562Z,1145.00
2023-04-09T09:48:54.797Z,1139.00
2023-04-09T09:49:54.510Z,1153.00
2023-04-09T09:50:54.594Z,1127.00
2023-04-09T09:51:54.617Z,1114.00
2023-04-09T09:52:54.663Z,1123.00
2023-04-09T09:53:54.721Z,1128.00
2023-04-09T09:54:54.758Z,1103.00
2023-04-09T09:55:57.720Z,1107.00
2023-04-09T09:56:54.813Z,1106.00
2023-04-09T09:57:54.801Z,1107.00
2023-04-09T09:58:54.894Z,1093.00
2023-04-09T09:59:54.795Z,1071.00
2023-04-09T10:00:54.779Z,1062.00
2023-04-09T10:01:54.902Z,1060.00
2023-04-09T10:02:54.806Z,1066.00
2023-04-09T10:03:54.758Z,1080.00
2023-04-09T10:04:55.050Z,1076.00
2023-04-09T10:05:54.741Z,1075.00
2023-04-09T10:06:54.746Z,1043.00
2023-04-09T10:07:54.728Z,1039.00
2023-04-09T10:08:54.723Z,1027.00
2023-04-09T10:09:55.230Z,1038.00
2023-04-09T10:10:54.719Z,1025.00
2023-04-09T10:11:54.693Z,1042.00
2023-04-09T10:12:54.689Z,1033.00
2023-04-09T10:13:54.807Z,1032.00
2023-04-09T10:14:54.727Z,1043.00
2023-04-09T10:15:54.709Z,1044.00
2023-04-09T10:16:54.661Z,1039.00
2023-04-09T10:17:54.734Z,1025.00
2023-04-09T10:18:54.656Z,1019.00
2023-04-09T10:19:54.656Z,1017.00
2023-04-09T10:20:54.662Z,1063.00
2023-04-09T10:21:54.699Z,1028.00
2023-04-09T10:22:54.635Z,1030.00
2023-04-09T10:23:54.646Z,1019.00
2023-04-09T10:24:54.619Z,1009.00
2023-04-09T10:25:54.624Z,1020.00
2023-04-09T10:26:54.661Z,1022.00
2023-04-09T10:27:54.622Z,1025.00
2023-04-09T10:28:54.620Z,1042.00
2023-04-09T10:29:54.615Z,1019.00
2023-04-09T10:30:54.715Z,1011.00
2023-04-09T10:31:54.598Z,1024.00
2023-04-09T10:32:54.700Z,1028.00
2023-04-09T10:33:54.560Z,1060.00
2023-04-09T10:34:54.559Z,1037.00
2023-04-09T10:35:54.596Z,1033.00
2023-04-09T10:36:54.549Z,1022.00
2023-04-09T10:37:54.552Z,1009.00
2023-04-09T10:38:54.633Z,1013.00
2023-04-09T10:39:54.592Z,1031.00
2023-04-09T10:40:54.686Z,1025.00
2023-04-09T10:41:54.728Z,1013.00
2023-04-09T10:42:54.761Z,1015.00
2023-04-09T10:43:54.818Z,1010.00
2023-04-09T10:44:54.870Z,1010.00
2023-04-09T10:45:54.938Z,1018.00
2023-04-09T10:46:55.208Z,1009.00
2023-04-09T10:47:55.121Z,995.00
2023-04-09T10:48:55.078Z,986.00
2023-04-09T10:49:55.127Z,994.00
2023-04-09T10:50:55.743Z,992.00
2023-04-09T10:51:55.222Z,1006.00
2023-04-09T10:52:55.339Z,981.00
2023-04-09T10:53:55.302Z,1010.00
2023-04-09T10:54:55.348Z,1006.00
2023-04-09T10:55:55.415Z,1006.00
2023-04-09T10:56:55.447Z,1017.00
2023-04-09T10:57:55.490Z,1003.00
2023-04-09T10:58:55.552Z,1012.00
2023-04-09T10:59:55.609Z,1011.00
2023-04-09T11:00:55.680Z,998.00
2023-04-09T11:01:55.835Z,1008.00
2023-04-09T11:02:55.896Z,991.00
2023-04-09T11:03:55.876Z,998.00
2023-04-09T11:04:55.943Z,986.00
2023-04-09T11:05:55.964Z,974.00
2023-04-09T11:06:56.018Z,973.00
2023-04-09T11:07:56.067Z,972.00
2023-04-09T11:08:56.123Z,967.00
2023-04-09T11:09:56.243Z,978.00
2023-04-09T11:10:56.265Z,969.00
2023-04-09T11:11:56.302Z,980.00
2023-04-09T11:12:56.424Z,978.00
2023-04-09T11:13:56.409Z,977.00
2023-04-09T11:14:57.253Z,965.00
2023-04-09T11:15:56.579Z,987.00
2023-04-09T11:16:56.579Z,969.00
2023-04-09T11:17:56.657Z,969.00
2023-04-09T11:18:56.688Z,971.00
2023-04-09T11:19:56.748Z,969.00
2023-04-09T11:20:56.809Z,960.00
2023-04-09T11:21:56.873Z,968.00
2023-04-09T11:22:56.920Z,973.00
2023-04-09T11:23:56.984Z,982.00
2023-04-09T11:24:57.042Z,978.00
2023-04-09T11:25:57.103Z,971.00
2023-04-09T11:26:57.170Z,975.00
2023-04-09T11:27:57.213Z,978.00
2023-04-09T11:28:57.272Z,980.00
2023-04-09T11:29:57.337Z,978.00
2023-04-09T11:30:57.388Z,979.00
2023-04-09T11:31:57.540Z,987.00
2023-04-09T11:32:57.584Z,995.00
2023-04-09T11:33:57.548Z,1013.00
2023-04-09T11:34:57.607Z,1000.00
2023-04-09T11:35:57.679Z,1000.00
2023-04-09T11:36:57.708Z,996.00
2023-04-09T11:37:57.769Z,996.00
2023-04-09T11:38:57.816Z,981.00
2023-04-09T11:39:58.039Z,989.00
2023-04-09T11:40:57.941Z,1010.00
2023-04-09T11:41:58.001Z,997.00
2023-04-09T11:42:58.056Z,1005.00
2023-04-09T11:43:58.109Z,1003.00
2023-04-09T11:44:58.171Z,986.00
2023-04-09T11:45:58.221Z,988.00
2023-04-09T11:46:58.340Z,990.00
2023-04-09T11:47:58.408Z,984.00
2023-04-09T11:48:58.411Z,992.00
2023-04-09T11:49:58.545Z,986.00
2023-04-09T11:50:58.523Z,978.00
2023-04-09T11:51:58.583Z,982.00
2023-04-09T11:52:58.640Z,990.00
2023-04-09T11:53:58.688Z,1014.00
2023-04-09T11:54:58.769Z,984.00
2023-04-09T11:55:58.824Z,997.00
2023-04-09T11:56:58.884Z,1001.00
2023-04-09T11:57:58.937Z,1001.00
2023-04-09T11:58:59.002Z,999.00
2023-04-09T11:59:59.038Z,998.00
2023-04-09T12:00:59.164Z,988.00
2023-04-09T12:01:59.217Z,990.00
2023-04-09T12:02:59.307Z,988.00
2023-04-09T12:03:59.354Z,999.00
2023-04-09T12:04:59.302Z,997.00
2023-04-09T12:05:59.306Z,1011.00
2023-04-09T12:06:59.335Z,1005.00
2023-04-09T12:07:59.376Z,997.00
2023-04-09T12:08:59.396Z,1003.00
2023-04-09T12:09:59.424Z,995.00